createdAt,value
2023-04-03T00:00:59.317Z,1.00
2023-04-03T00:03:32.777Z,1.08
2023-04-03T00:06:08.217Z,0.80
2023-04-03T00:08:35.713Z,0.90
2023-04-03T00:11:04.951Z,0.95
2023-04-03T00:13:33.364Z,0.80
2023-04-03T00:16:00.656Z,1.10
2023-04-03T00:18:27.909Z,0.85
2023-04-03T00:20:58.311Z,1.25
2023-04-03T00:23:26.734Z,0.68
2023-04-03T00:25:57.093Z,0.98
2023-04-03T00:28:28.837Z,1.15
2023-04-03T00:31:02.707Z,1.23
2023-04-03T00:39:40.643Z,1.73
2023-04-03T00:42:07.704Z,1.27
2023-04-03T00:44:34.341Z,1.40
2023-04-03T00:47:02.471Z,1.58
2023-04-03T00:49:33.258Z,1.85
2023-04-03T00:52:00.543Z,1.40
2023-04-03T00:54:32.284Z,1.30
2023-04-03T00:56:59.586Z,0.90
2023-04-03T00:59:31.474Z,1.10
2023-04-03T01:02:05.604Z,0.90
2023-04-03T01:04:41.094Z,0.75
2023-04-03T01:07:18.565Z,0.88
2023-04-03T01:09:48.222Z,0.90
2023-04-03T01:12:33.467Z,0.70
2023-04-03T01:15:13.194Z,1.00
2023-04-03T01:17:54.387Z,0.57
2023-04-03T01:20:33.433Z,0.95
2023-04-03T01:23:15.976Z,0.60
2023-04-03T01:25:50.965Z,0.52
2023-04-03T01:28:31.108Z,1.00
2023-04-03T01:31:09.899Z,0.70
2023-04-03T01:33:37.461Z,1.00
2023-04-03T01:36:04.992Z,1.10
2023-04-03T01:38:32.010Z,0.98
2023-04-03T01:40:59.031Z,1.88
2023-04-03T01:43:26.072Z,2.65
2023-04-03T01:45:55.564Z,3.25
2023-04-03T01:48:23.045Z,2.90
2023-04-03T01:50:49.844Z,3.22
2023-04-03T01:53:19.766Z,2.95
2023-04-03T01:55:46.897Z,3.10
2023-04-03T01:58:13.792Z,3.00
2023-04-03T02:00:43.260Z,3.10
2023-04-03T02:03:19.974Z,3.00
2023-04-03T02:05:46.894Z,2.67
2023-04-03T02:08:14.147Z,3.53
2023-04-03T02:10:41.512Z,3.25
2023-04-03T02:13:08.422Z,3.00
2023-04-03T02:15:35.078Z,2.83
2023-04-03T02:18:01.856Z,2.45
2023-04-03T02:20:34.795Z,2.88
2023-04-03T02:23:02.668Z,2.35
2023-04-03T02:25:29.689Z,2.13
2023-04-03T02:27:57.719Z,2.05
2023-04-03T02:30:29.351Z,1.45
2023-04-03T02:32:57.934Z,1.50
2023-04-03T02:35:24.984Z,1.35
2023-04-03T02:37:52.790Z,1.25
2023-04-03T02:40:20.189Z,1.40
2023-04-03T02:42:46.988Z,1.48
2023-04-03T02:45:14.151Z,1.30
2023-04-03T02:47:41.323Z,1.25
2023-04-03T02:50:12.346Z,1.13
2023-04-03T02:52:40.885Z,1.00
2023-04-03T02:55:08.306Z,1.17
2023-04-03T02:57:35.466Z,1.10
2023-04-03T03:00:06.197Z,1.67
2023-04-03T03:02:33.491Z,1.60
2023-04-03T03:05:00.619Z,1.30
2023-04-03T03:07:27.818Z,0.93
2023-04-03T03:12:52.239Z,1.50
2023-04-03T03:15:25.764Z,1.30
2023-04-03T03:18:17.787Z,0.90
2023-04-03T03:20:45.074Z,2.15
2023-04-03T03:23:11.919Z,2.03
2023-04-03T03:25:42.462Z,2.33
2023-04-03T03:28:09.651Z,1.33
2023-04-03T03:30:36.644Z,1.30
2023-04-03T03:33:04.748Z,1.10
2023-04-03T03:35:39.894Z,1.35
2023-04-03T03:38:17.486Z,1.02
2023-04-03T03:40:44.371Z,0.90
2023-04-03T03:43:11.439Z,1.05
2023-04-03T03:45:53.515Z,1.20
2023-04-03T03:48:31.382Z,0.90
2023-04-03T03:50:59.532Z,1.05
2023-04-03T03:53:26.790Z,1.35
2023-04-03T03:55:53.571Z,1.30
2023-04-03T03:58:20.476Z,1.27
2023-04-03T04:00:47.525Z,1.35
2023-04-03T04:03:14.342Z,1.65
2023-04-03T04:05:41.149Z,1.30
2023-04-03T04:08:08.118Z,1.25
2023-04-03T04:10:35.841Z,1.80
2023-04-03T04:13:02.588Z,1.75
2023-04-03T04:15:30.353Z,1.73
2023-04-03T04:17:58.282Z,2.05
2023-04-03T04:20:44.496Z,2.72
2023-04-03T04:23:12.729Z,3.67
2023-04-03T04:25:39.872Z,4.15
2023-04-03T04:28:09.296Z,3.33
2023-04-03T04:30:50.800Z,2.80
2023-04-03T04:36:11.135Z,1.95
2023-04-03T04:38:38.658Z,1.95
2023-04-03T04:41:08.280Z,2.33
2023-04-03T04:43:35.329Z,2.60
2023-04-03T04:46:07.953Z,2.85
2023-04-03T04:48:36.340Z,3.08
2023-04-03T04:51:03.836Z,2.97
2023-04-03T04:53:31.044Z,2.50
2023-04-03T04:55:57.739Z,2.47
2023-04-03T04:58:24.454Z,3.00
2023-04-03T05:00:54.842Z,2.47
2023-04-03T05:03:21.538Z,2.55
2023-04-03T05:05:49.547Z,3.08
2023-04-03T05:08:16.782Z,2.53
2023-04-03T05:10:47.894Z,2.63
2023-04-03T05:13:40.135Z,3.05
2023-04-03T05:16:07.782Z,3.17
2023-04-03T05:18:34.900Z,2.80
2023-04-03T05:21:01.879Z,2.55
2023-04-03T05:23:28.668Z,5.07
2023-04-03T05:26:07.130Z,3.30
2023-04-03T05:28:34.243Z,3.13
2023-04-03T05:31:01.060Z,2.35
2023-04-03T05:33:28.593Z,1.88
2023-04-03T05:35:55.987Z,1.85
2023-04-03T05:38:23.018Z,3.50
2023-04-03T05:40:53.993Z,12.20
2023-04-03T05:43:22.118Z,12.23
2023-04-03T05:45:49.718Z,8.88
2023-04-03T05:48:17.152Z,7.03
2023-04-03T05:50:44.882Z,7.47
2023-04-03T05:53:22.684Z,8.65
2023-04-03T05:55:49.631Z,8.48
2023-04-03T05:58:18.012Z,8.57
2023-04-03T06:00:45.185Z,6.15
2023-04-03T06:03:12.431Z,6.90
2023-04-03T06:05:39.759Z,7.32
2023-04-03T06:08:07.109Z,5.78
2023-04-03T06:10:34.326Z,6.05
2023-04-03T06:13:01.071Z,5.75
2023-04-03T06:15:28.662Z,6.45
2023-04-03T06:17:56.414Z,4.80
2023-04-03T06:20:23.730Z,5.03
2023-04-03T06:22:51.796Z,4.20
2023-04-03T06:25:20.153Z,6.00
2023-04-03T06:27:46.944Z,7.00
2023-04-03T06:30:14.317Z,7.20
2023-04-03T06:32:41.917Z,6.75
2023-04-03T06:35:09.897Z,6.80
2023-04-03T06:37:36.748Z,7.80
2023-04-03T06:40:04.516Z,8.20
2023-04-03T06:42:31.566Z,8.65
2023-04-03T06:44:58.648Z,8.27
2023-04-03T06:47:25.874Z,8.60
2023-04-03T06:49:56.009Z,9.55
2023-04-03T06:52:23.024Z,9.00
2023-04-03T06:54:49.822Z,9.60
2023-04-03T06:57:22.639Z,9.10
2023-04-03T06:59:50.026Z,10.07
2023-04-03T07:02:19.902Z,10.48
2023-04-03T07:04:46.842Z,10.02
2023-04-03T07:07:15.337Z,9.68
2023-04-03T07:09:45.178Z,9.52
2023-04-03T07:12:12.217Z,7.90
2023-04-03T07:14:39.544Z,7.18
2023-04-03T07:17:06.676Z,6.57
2023-04-03T07:19:33.376Z,6.75
2023-04-03T07:22:00.511Z,6.72
2023-04-03T07:24:27.468Z,6.13
2023-04-03T07:26:54.370Z,11.32
2023-04-03T07:29:22.749Z,7.53
2023-04-03T07:31:50.529Z,7.70
2023-04-03T07:34:17.464Z,7.72
2023-04-03T07:36:44.540Z,8.18
2023-04-03T07:39:12.348Z,6.10
2023-04-03T07:41:39.446Z,6.15
2023-04-03T07:44:06.962Z,6.82
2023-04-03T07:46:33.879Z,6.47
2023-04-03T07:49:00.835Z,6.65
2023-04-03T07:51:29.593Z,4.78
2023-04-03T07:53:56.835Z,6.00
2023-04-03T07:56:25.489Z,5.18
2023-04-03T07:58:55.046Z,5.72
2023-04-03T08:01:22.304Z,6.63
2023-04-03T08:03:49.312Z,5.95
2023-04-03T08:06:21.601Z,6.78
2023-04-03T08:08:55.195Z,6.13
2023-04-03T08:11:22.789Z,5.60
2023-04-03T08:13:49.740Z,5.68
2023-04-03T08:16:23.478Z,4.68
2023-04-03T08:18:50.585Z,3.80
2023-04-03T08:21:17.333Z,4.30
2023-04-03T08:23:44.321Z,3.83
2023-04-03T08:26:13.644Z,3.85
2023-04-03T08:28:41.738Z,4.60
2023-04-03T08:31:13.401Z,5.65
2023-04-03T08:33:40.866Z,4.60
2023-04-03T08:36:09.479Z,4.55
2023-04-03T08:38:38.368Z,4.00
2023-04-03T08:41:31.724Z,4.18
2023-04-03T08:44:34.157Z,4.38
2023-04-03T08:47:15.919Z,5.00
2023-04-03T08:49:57.395Z,6.05
2023-04-03T08:52:37.671Z,5.03
2023-04-03T08:55:25.860Z,5.13
2023-04-03T08:58:02.618Z,4.78
2023-04-03T09:00:36.224Z,5.53
2023-04-03T09:03:06.154Z,4.82
2023-04-03T09:05:48.832Z,5.50
2023-04-03T09:08:24.205Z,4.70
2023-04-03T09:10:56.707Z,4.97
2023-04-03T09:13:48.830Z,4.93
2023-04-03T09:16:28.257Z,4.82
2023-04-03T09:19:11.579Z,5.00
2023-04-03T09:21:43.794Z,4.82
2023-04-03T09:24:15.059Z,5.57
2023-04-03T09:27:07.129Z,6.13
2023-04-03T09:29:40.522Z,4.93
2023-04-03T09:32:34.182Z,5.18
2023-04-03T09:35:19.101Z,4.78
2023-04-03T09:37:50.404Z,5.18
2023-04-03T09:40:27.210Z,6.00
2023-04-03T09:43:01.382Z,5.05
2023-04-03T09:45:31.578Z,5.78
2023-04-03T09:48:15.289Z,5.70
2023-04-03T09:50:52.385Z,5.63
2023-04-03T09:53:46.176Z,5.70
2023-04-03T09:56:21.889Z,6.63
2023-04-03T09:58:51.350Z,5.20
2023-04-03T10:01:36.792Z,5.15
2023-04-03T10:04:23.273Z,5.93
2023-04-03T10:06:52.797Z,5.07
2023-04-03T10:09:34.489Z,5.25
2023-04-03T10:12:08.039Z,5.88
2023-04-03T10:14:56.694Z,6.00
2023-04-03T10:17:50.755Z,9.13
2023-04-03T10:20:51.738Z,7.68
2023-04-03T10:23:23.350Z,6.93
2023-04-03T10:26:14.099Z,7.18
2023-04-03T10:29:05.590Z,6.78
2023-04-03T10:31:44.431Z,7.45
2023-04-03T10:34:29.663Z,8.75
2023-04-03T10:37:11.671Z,9.82
2023-04-03T10:40:03.245Z,12.65
2023-04-03T10:42:41.123Z,10.15
2023-04-03T10:45:45.552Z,10.77
2023-04-03T10:48:34.617Z,12.30
2023-04-03T10:51:28.370Z,14.07
2023-04-03T10:54:03.388Z,13.70
2023-04-03T10:57:08.560Z,12.75
2023-04-03T10:59:53.014Z,12.73
2023-04-03T11:02:31.067Z,15.00
2023-04-03T11:05:06.477Z,14.07
2023-04-03T11:07:44.476Z,14.05
2023-04-03T11:10:20.634Z,13.02
2023-04-03T11:13:03.281Z,12.35
2023-04-03T11:15:38.201Z,12.73
2023-04-03T11:18:16.384Z,11.95
2023-04-03T11:20:52.178Z,11.35
2023-04-03T11:23:45.877Z,10.07
2023-04-03T11:26:40.194Z,7.80
2023-04-03T11:29:28.256Z,6.93
2023-04-03T11:32:23.334Z,6.22
2023-04-03T11:34:59.792Z,6.30
2023-04-03T11:37:36.104Z,5.95
2023-04-03T11:40:10.634Z,5.53
2023-04-03T11:42:42.191Z,4.78
2023-04-03T11:45:27.881Z,4.90
2023-04-03T11:47:58.080Z,5.18
2023-04-03T11:50:49.453Z,4.85
2023-04-03T11:53:19.495Z,5.47
2023-04-03T11:55:49.326Z,5.55
2023-04-03T11:58:26.758Z,6.43
2023-04-03T12:01:08.404Z,6.10
2023-04-03T12:04:06.485Z,5.15
2023-04-03T12:06:33.763Z,4.70
2023-04-03T12:09:01.151Z,4.00
2023-04-03T12:11:32.839Z,4.35
2023-04-03T12:14:00.516Z,4.40
2023-04-03T12:16:39.518Z,4.78
2023-04-03T12:19:16.289Z,4.93
2023-04-03T12:22:06.182Z,4.45
2023-04-03T12:24:37.943Z,4.35
2023-04-03T12:30:17.635Z,7.20
2023-04-03T12:33:12.529Z,6.55
2023-04-03T12:36:17.095Z,7.40
2023-04-03T12:39:07.611Z,6.18
2023-04-03T12:42:05.783Z,7.50
2023-04-03T12:44:53.959Z,6.63
2023-04-03T12:47:25.856Z,5.68
2023-04-03T12:49:58.133Z,4.20
2023-04-03T12:52:33.788Z,4.40
2023-04-03T12:55:05.389Z,6.05
2023-04-03T12:57:38.380Z,5.10
2023-04-03T13:00:31.034Z,5.20
2023-04-03T13:02:58.779Z,6.47
2023-04-03T13:05:26.228Z,5.32
2023-04-03T13:08:05.096Z,6.32
2023-04-03T13:10:33.962Z,6.80
2023-04-03T13:13:10.208Z,6.70
2023-04-03T13:15:46.450Z,4.90
2023-04-03T13:18:36.164Z,4.50
2023-04-03T13:21:09.836Z,4.68
2023-04-03T13:23:41.481Z,4.50
2023-04-03T13:26:08.695Z,4.78
2023-04-03T13:28:36.824Z,5.88
2023-04-03T13:31:11.964Z,7.18
2023-04-03T13:33:39.417Z,8.00
2023-04-03T13:36:37.162Z,8.93
2023-04-03T13:39:26.435Z,8.75
2023-04-03T13:41:56.130Z,7.60
2023-04-03T13:44:23.313Z,10.52
2023-04-03T13:46:57.659Z,11.25
2023-04-03T13:49:36.780Z,10.98
2023-04-03T13:52:37.890Z,11.00
2023-04-03T13:55:27.190Z,12.73
2023-04-03T13:57:59.320Z,11.20
2023-04-03T14:00:38.475Z,10.07
2023-04-03T14:03:19.890Z,9.85
2023-04-03T14:05:48.548Z,9.18
2023-04-03T14:08:15.899Z,8.55
2023-04-03T14:10:43.446Z,9.68
2023-04-03T14:13:16.897Z,11.65
2023-04-03T14:15:50.092Z,9.77
2023-04-03T14:18:21.874Z,8.93
2023-04-03T14:20:50.557Z,9.45
2023-04-03T14:23:17.586Z,12.52
2023-04-03T14:25:45.111Z,13.43
2023-04-03T14:28:22.372Z,12.18
2023-04-03T14:30:54.361Z,12.75
2023-04-03T14:33:23.317Z,10.40
2023-04-03T14:35:50.719Z,8.93
2023-04-03T14:38:31.696Z,8.55
2023-04-03T14:41:15.564Z,8.30
2023-04-03T14:43:44.268Z,6.93
2023-04-03T14:46:15.968Z,8.05
2023-04-03T14:48:44.947Z,7.68
2023-04-03T14:54:13.255Z,6.97
2023-04-03T14:56:40.732Z,7.43
2023-04-03T14:59:18.828Z,6.85
2023-04-03T15:01:55.052Z,6.55
2023-04-03T15:07:15.930Z,5.25
2023-04-03T15:09:43.742Z,7.18
2023-04-03T15:12:11.128Z,7.20
2023-04-03T15:14:51.331Z,7.47
2023-04-03T15:17:24.181Z,7.25
2023-04-03T15:19:54.330Z,7.45
2023-04-03T15:22:21.496Z,7.28
2023-04-03T15:24:48.922Z,7.28
2023-04-03T15:27:17.458Z,8.35
2023-04-03T15:29:49.761Z,9.23
2023-04-03T15:32:17.623Z,8.13
2023-04-03T15:34:44.484Z,8.27
2023-04-03T15:37:11.686Z,8.05
2023-04-03T15:39:38.649Z,7.68
2023-04-03T15:42:07.396Z,8.50
2023-04-03T15:44:35.887Z,9.32
2023-04-03T15:47:03.640Z,10.20
2023-04-03T15:49:31.265Z,9.75
2023-04-03T15:51:58.267Z,9.88
2023-04-03T15:54:25.929Z,9.57
2023-04-03T15:56:53.974Z,9.85
2023-04-03T15:59:32.477Z,9.82
2023-04-03T16:02:00.781Z,10.93
2023-04-03T16:04:28.377Z,10.32
2023-04-03T16:06:55.358Z,8.52
2023-04-03T16:09:22.439Z,4.90
2023-04-03T16:11:49.340Z,6.32
2023-04-03T16:14:19.721Z,5.00
2023-04-03T16:16:46.831Z,3.30
2023-04-03T16:19:14.403Z,3.85
2023-04-03T16:21:44.664Z,2.60
2023-04-03T16:24:11.605Z,2.88
2023-04-03T16:26:38.460Z,3.30
2023-04-03T16:29:05.876Z,4.93
2023-04-03T16:31:36.791Z,6.93
2023-04-03T16:34:04.071Z,7.60
2023-04-03T16:36:31.035Z,7.07
2023-04-03T16:38:57.906Z,6.38
2023-04-03T16:41:24.998Z,7.88
2023-04-03T16:43:52.477Z,9.15
2023-04-03T16:46:19.331Z,10.00
2023-04-03T16:48:46.343Z,12.45
2023-04-03T16:51:17.235Z,13.10
2023-04-03T16:53:44.199Z,13.05
2023-04-03T16:56:11.422Z,14.10
2023-04-03T16:58:38.583Z,8.15
2023-04-03T17:01:18.826Z,13.65
2023-04-03T17:03:46.209Z,10.80
2023-04-03T17:06:18.227Z,10.80
2023-04-03T17:08:47.309Z,6.97
2023-04-03T17:11:15.048Z,8.80
2023-04-03T17:13:42.309Z,10.13
2023-04-03T17:16:14.196Z,11.70
2023-04-03T17:18:41.999Z,7.20
2023-04-03T17:21:09.278Z,7.00
2023-04-03T17:23:38.573Z,9.43
2023-04-03T17:26:06.491Z,7.80
2023-04-03T17:28:33.471Z,24.60
2023-04-03T17:31:04.142Z,12.90
2023-04-03T17:33:31.774Z,8.90
2023-04-03T17:36:06.355Z,8.63
2023-04-03T17:38:34.076Z,9.23
2023-04-03T17:41:15.169Z,8.93
2023-04-03T17:43:42.627Z,8.93
2023-04-03T17:46:11.210Z,7.18
2023-04-03T17:48:41.228Z,5.70
2023-04-03T17:51:20.697Z,7.72
2023-04-03T17:53:48.728Z,7.32
2023-04-03T17:56:23.372Z,17.85
2023-04-03T17:58:51.718Z,15.57
2023-04-03T18:01:20.962Z,19.35
2023-04-03T18:03:50.264Z,11.98
2023-04-03T18:06:19.722Z,12.48
2023-04-03T18:08:50.687Z,15.57
2023-04-03T18:11:19.346Z,9.50
2023-04-03T18:13:46.809Z,10.05
2023-04-03T18:16:14.729Z,6.05
2023-04-03T18:18:42.116Z,4.68
2023-04-03T18:21:13.233Z,3.72
2023-04-03T18:23:44.833Z,3.65
2023-04-03T18:26:16.587Z,3.25
2023-04-03T18:28:54.151Z,3.95
2023-04-03T18:31:26.630Z,3.08
2023-04-03T18:33:55.525Z,3.60
2023-04-03T18:36:23.936Z,3.85
2023-04-03T18:38:51.307Z,3.35
2023-04-03T18:41:19.682Z,2.92
2023-04-03T18:46:43.056Z,3.35
2023-04-03T18:49:10.983Z,0.95
2023-04-03T18:51:40.334Z,1.40
2023-04-03T18:54:10.147Z,4.88
2023-04-03T18:56:37.934Z,3.45
2023-04-03T18:59:15.689Z,3.58
2023-04-03T19:01:44.227Z,2.95
2023-04-03T19:04:11.821Z,3.15
2023-04-03T19:06:38.786Z,2.67
2023-04-03T19:09:07.412Z,2.72
2023-04-03T19:11:34.744Z,2.20
2023-04-03T19:14:10.135Z,2.63
2023-04-03T19:16:41.986Z,2.22
2023-04-03T19:19:11.555Z,1.88
2023-04-03T19:21:41.622Z,0.90
2023-04-03T19:24:13.524Z,1.60
2023-04-03T19:26:42.431Z,2.10
2023-04-03T19:29:10.410Z,3.53
2023-04-03T19:31:39.844Z,3.67
2023-04-03T19:34:07.602Z,4.10
2023-04-03T19:36:36.101Z,3.92
2023-04-03T19:39:04.483Z,3.10
2023-04-03T19:41:34.461Z,1.98
2023-04-03T19:44:02.407Z,1.88
2023-04-03T19:46:30.656Z,1.90
2023-04-03T19:48:57.675Z,1.70
2023-04-03T19:51:24.604Z,1.45
2023-04-03T19:53:52.554Z,1.35
2023-04-03T19:56:21.696Z,1.05
2023-04-03T19:58:54.487Z,1.38
2023-04-03T20:01:30.973Z,1.45
2023-04-03T20:03:57.997Z,1.58
2023-04-03T20:06:25.184Z,2.20
2023-04-03T20:08:53.716Z,1.85
2023-04-03T20:11:21.375Z,1.70
2023-04-03T20:13:52.168Z,1.70
2023-04-03T20:16:22.839Z,2.22
2023-04-03T20:18:52.373Z,2.95
2023-04-03T20:21:19.672Z,1.95
2023-04-03T20:23:47.038Z,2.50
2023-04-03T20:26:23.693Z,2.13
2023-04-03T20:28:51.620Z,1.90
2023-04-03T20:31:18.661Z,2.60
2023-04-03T20:33:47.939Z,2.30
2023-04-03T20:36:16.198Z,3.10
2023-04-03T20:38:43.374Z,2.35
2023-04-03T20:41:13.897Z,2.67
2023-04-03T20:43:43.442Z,2.75
2023-04-03T20:46:20.367Z,1.90
2023-04-03T20:48:48.572Z,1.52
2023-04-03T20:51:19.026Z,1.30
2023-04-03T20:53:49.635Z,1.60
2023-04-03T20:56:17.090Z,1.85
2023-04-03T20:58:45.973Z,3.60
2023-04-03T21:01:19.536Z,3.00
2023-04-03T21:03:47.556Z,3.67
2023-04-03T21:06:52.458Z,4.53
2023-04-03T21:09:58.124Z,4.57
2023-04-03T21:13:03.499Z,3.25
2023-04-03T21:16:00.218Z,3.15
2023-04-03T21:19:02.592Z,2.30
2023-04-03T21:21:29.610Z,2.47
2023-04-03T21:23:56.876Z,1.98
2023-04-03T21:26:30.149Z,1.50
2023-04-03T21:28:57.718Z,1.90
2023-04-03T21:31:25.070Z,1.38
2023-04-03T21:33:52.191Z,1.73
2023-04-03T21:36:19.437Z,1.75
2023-04-03T21:38:46.682Z,2.22
2023-04-03T21:41:13.732Z,3.22
2023-04-03T21:43:40.723Z,2.90
2023-04-03T21:46:07.591Z,2.40
2023-04-03T21:48:36.619Z,1.98
2023-04-03T21:51:07.004Z,2.28
2023-04-03T21:53:34.705Z,1.48
2023-04-03T21:56:02.890Z,1.88
2023-04-03T21:58:31.420Z,1.50
2023-04-03T22:01:09.287Z,1.88
2023-04-03T22:03:36.301Z,2.53
2023-04-03T22:06:05.488Z,2.78
2023-04-03T22:08:32.665Z,2.75
2023-04-03T22:11:07.071Z,2.42
2023-04-03T22:13:34.383Z,2.05
2023-04-03T22:16:02.113Z,2.60
2023-04-03T22:18:29.893Z,2.47
2023-04-03T22:20:57.392Z,2.05
2023-04-03T22:23:24.690Z,1.70
2023-04-03T22:26:17.871Z,1.98
2023-04-03T22:28:46.555Z,1.90
2023-04-03T22:31:16.560Z,2.20
2023-04-03T22:33:45.682Z,1.77
2023-04-03T22:36:14.026Z,2.00
2023-04-03T22:38:44.326Z,2.47
2023-04-03T22:41:12.235Z,1.80
2023-04-03T22:43:39.644Z,2.03
2023-04-03T22:46:08.926Z,2.00
2023-04-03T22:48:37.369Z,2.20
2023-04-03T22:51:07.755Z,2.03
2023-04-03T22:53:35.464Z,2.25
2023-04-03T22:56:05.155Z,2.25
2023-04-03T22:58:32.316Z,2.50
2023-04-03T23:01:11.203Z,4.03
2023-04-03T23:03:39.616Z,5.07
2023-04-03T23:06:07.882Z,4.63
2023-04-03T23:08:36.012Z,4.60
2023-04-03T23:11:04.901Z,3.65
2023-04-03T23:13:31.711Z,2.95
2023-04-03T23:16:00.946Z,2.58
2023-04-03T23:18:29.834Z,1.90
2023-04-03T23:20:58.481Z,1.50
2023-04-03T23:23:25.833Z,1.60
2023-04-03T23:25:53.277Z,2.10
2023-04-03T23:28:20.304Z,2.25
2023-04-03T23:30:48.144Z,2.22
2023-04-03T23:33:15.289Z,1.92
2023-04-03T23:35:46.803Z,1.95
2023-04-03T23:38:14.444Z,2.40
2023-04-03T23:40:46.326Z,3.20
2023-04-03T23:43:13.220Z,2.70
2023-04-03T23:45:42.669Z,2.75
2023-04-03T23:48:09.564Z,2.90
2023-04-03T23:50:37.305Z,3.35
2023-04-03T23:53:04.767Z,2.78
2023-04-03T23:55:31.787Z,3.00
2023-04-03T23:57:58.595Z,3.15
